Time;durP1;ratioP1;P1;durP2;ratioP2;P2;SDS_P1;SDS_P2;PMS_P1;PMS_P2;Temp;Humidity;BMP_temperature;BMP_pressure;BME280_temperature;BME280_humidity;BME280_pressure;Samples;Min_cycle;Max_cycle;Signal;HPM_P1;HPM_P2
2021/12/12 00:02:26;;;;;;;13.63;6.88;;;10.90;99.90;;;;;;5055456;28;20052;-78
2021/12/12 00:04:53;;;;;;;13.20;7.13;;;10.80;99.90;;;;;;5055712;28;20024;-74
2021/12/12 00:07:24;;;;;;;12.80;6.80;;;10.90;99.90;;;;;;5055089;28;20025;-80
2021/12/12 00:09:55;;;;;;;10.57;6.18;;;10.90;99.90;;;;;;5055534;28;20036;-75
2021/12/12 00:12:25;;;;;;;10.80;6.70;;;10.90;99.90;;;;;;5054653;28;20021;-77
2021/12/12 00:14:51;;;;;;;10.10;5.30;;;10.80;99.90;;;;;;5054935;28;20025;-77
2021/12/12 00:17:18;;;;;;;9.20;5.53;;;10.90;99.90;;;;;;5054855;28;20086;-78
2021/12/12 00:19:44;;;;;;;11.57;5.57;;;10.90;99.90;;;;;;5055098;28;20033;-78
2021/12/12 00:22:14;;;;;;;9.80;5.25;;;10.90;99.90;;;;;;5055014;28;20025;-79
2021/12/12 00:24:40;;;;;;;10.63;5.55;;;10.90;99.90;;;;;;5054690;28;20119;-80
2021/12/12 00:27:07;;;;;;;11.50;6.15;;;10.90;99.90;;;;;;5054452;28;20400;-79
2021/12/12 00:29:34;;;;;;;11.82;6.60;;;11.00;99.90;;;;;;5054597;28;20500;-76
2021/12/12 00:32:04;;;;;;;10.77;6.10;;;11.00;99.90;;;;;;5054602;28;20013;-78
2021/12/12 00:34:35;;;;;;;11.30;7.03;;;11.00;99.90;;;;;;5053238;28;20486;-81
2021/12/12 00:37:03;;;;;;;10.98;5.80;;;11.00;99.90;;;;;;5054777;28;20104;-79
2021/12/12 00:39:31;;;;;;;12.48;5.88;;;11.00;99.90;;;;;;5054379;28;20028;-77
2021/12/12 00:41:59;;;;;;;13.55;6.63;;;11.10;99.90;;;;;;5054353;28;20100;-78
2021/12/12 00:44:26;;;;;;;12.45;6.97;;;11.10;99.90;;;;;;5054314;28;20465;-78
2021/12/12 00:46:55;;;;;;;13.63;7.57;;;11.10;99.90;;;;;;5054578;28;20064;-76
2021/12/12 00:49:21;;;;;;;11.23;6.35;;;11.10;99.90;;;;;;5054177;28;20025;-77
2021/12/12 00:51:48;;;;;;;16.83;6.63;;;11.20;99.90;;;;;;5054731;28;20100;-76
2021/12/12 00:54:15;;;;;;;11.48;5.75;;;11.20;99.90;;;;;;5054124;28;20096;-77
2021/12/12 00:56:42;;;;;;;10.30;6.13;;;11.20;99.90;;;;;;5054099;28;20052;-76
2021/12/12 00:59:09;;;;;;;13.18;5.90;;;11.20;99.90;;;;;;5054321;28;20029;-75
2021/12/12 01:01:44;;;;;;;12.60;6.03;;;11.30;99.90;;;;;;5053991;28;20021;-79
2021/12/12 01:04:25;;;;;;;13.02;6.30;;;11.30;99.90;;;;;;5054022;28;20025;-75
2021/12/12 01:06:51;;;;;;;;;;;11.30;99.90;;;;;;5054950;28;20104;-78
2021/12/12 01:09:26;;;;;;;12.18;5.45;;;11.40;99.90;;;;;;5053806;28;20399;-77
2021/12/12 01:11:55;;;;;;;12.38;4.97;;;11.40;99.90;;;;;;5053921;28;20021;-78
2021/12/12 01:14:27;;;;;;;12.52;6.25;;;11.40;99.90;;;;;;5054104;28;20368;-75
2021/12/12 01:16:59;;;;;;;10.27;5.80;;;11.40;99.90;;;;;;5053712;28;20104;-79
2021/12/12 01:19:34;;;;;;;11.35;5.65;;;11.40;99.90;;;;;;5054065;28;20060;-76
2021/12/12 01:22:05;;;;;;;12.27;5.75;;;11.40;99.90;;;;;;5053715;28;20021;-76
2021/12/12 01:24:35;;;;;;;12.35;6.15;;;11.40;99.90;;;;;;5051360;28;20028;-76
2021/12/12 01:27:04;;;;;;;13.15;5.63;;;11.40;99.90;;;;;;5053416;28;20041;-78
2021/12/12 01:29:30;;;;;;;10.77;5.05;;;11.40;99.90;;;;;;5053476;28;20028;-75
2021/12/12 01:31:59;;;;;;;13.93;5.70;;;11.50;99.90;;;;;;5053771;28;20021;-77
2021/12/12 01:34:29;;;;;;;8.93;4.85;;;11.50;99.90;;;;;;5053492;28;20067;-82
2021/12/12 01:39:36;;;;;;;12.05;4.72;;;11.40;99.90;;;;;;5053403;28;20293;-77
2021/12/12 01:42:06;;;;;;;10.07;4.93;;;11.40;99.90;;;;;;5053399;28;20029;-77
2021/12/12 01:44:36;;;;;;;10.15;5.10;;;11.50;99.90;;;;;;5053943;28;20019;-75
2021/12/12 01:47:10;;;;;;;8.65;4.13;;;11.50;99.90;;;;;;5053319;28;20079;-81
2021/12/12 01:49:39;;;;;;;12.15;4.93;;;11.50;99.90;;;;;;5053546;28;20499;-76
2021/12/12 01:52:07;;;;;;;9.57;4.80;;;11.50;99.90;;;;;;5053233;28;20021;-78
2021/12/12 01:54:44;;;;;;;11.07;5.63;;;11.50;99.90;;;;;;5053488;28;20013;-78
2021/12/12 01:57:32;;;;;;;11.35;5.00;;;11.50;99.90;;;;;;5053270;28;20056;-74
2021/12/12 02:00:00;;;;;;;12.00;5.10;;;11.50;99.90;;;;;;5052847;28;20112;-79
2021/12/12 02:02:30;;;;;;;11.93;4.43;;;11.50;99.90;;;;;;5053122;28;20025;-79
2021/12/12 02:05:08;;;;;;;13.10;4.73;;;11.50;99.90;;;;;;5053144;28;20075;-79
2021/12/12 02:07:37;;;;;;;7.78;3.67;;;11.50;99.90;;;;;;5052140;28;20456;-80
2021/12/12 02:10:13;;;;;;;11.90;4.63;;;11.50;99.90;;;;;;5052987;28;20031;-80
2021/12/12 02:12:39;;;;;;;10.07;4.90;;;11.50;99.90;;;;;;5053071;28;20381;-76
2021/12/12 02:15:08;;;;;;;9.32;4.55;;;11.50;99.90;;;;;;5052970;28;20500;-77
2021/12/12 02:17:40;;;;;;;15.52;4.57;;;11.40;99.90;;;;;;5053007;28;20020;-76
2021/12/12 02:20:32;;;;;;;11.57;4.32;;;11.40;99.90;;;;;;5053583;28;20493;-75
2021/12/12 02:23:11;;;;;;;8.27;4.03;;;11.50;99.90;;;;;;5053296;28;20047;-78
2021/12/12 02:36:47;;;;;;;9.25;4.30;;;11.50;99.90;;;;;;5056774;28;20077;-76
2021/12/12 02:39:17;;;;;;;10.38;4.38;;;11.50;99.90;;;;;;5057062;28;20443;-76
2021/12/12 02:41:54;;;;;;;11.70;4.07;;;11.50;99.90;;;;;;5056691;28;20029;-75
2021/12/12 02:44:27;;;;;;;9.00;4.25;;;11.60;99.90;;;;;;5056667;28;20474;-76
2021/12/12 02:46:54;;;;;;;11.48;3.75;;;11.60;99.90;;;;;;5056631;28;20389;-76
2021/12/12 02:52:07;;;;;;;9.13;4.18;;;11.60;99.90;;;;;;5056212;28;20432;-79
2021/12/12 02:54:34;;;;;;;12.85;3.65;;;11.60;99.90;;;;;;5056431;28;20017;-77
2021/12/12 02:57:00;;;;;;;7.43;3.47;;;11.60;99.90;;;;;;5055143;28;20029;-78
2021/12/12 02:59:26;;;;;;;7.90;4.03;;;11.60;99.90;;;;;;5056338;28;20096;-78
2021/12/12 03:02:06;;;;;;;7.88;3.45;;;11.60;99.90;;;;;;5056572;28;20104;-78
2021/12/12 03:04:32;;;;;;;9.85;3.65;;;11.60;99.90;;;;;;5056856;28;20528;-77
2021/12/12 03:06:58;;;;;;;8.15;3.60;;;11.60;99.90;;;;;;5056230;28;20025;-79
2021/12/12 03:09:31;;;;;;;8.85;3.33;;;11.70;99.90;;;;;;5056106;28;20484;-75
2021/12/12 03:12:02;;;;;;;12.07;3.90;;;11.60;99.90;;;;;;5056417;28;20025;-80
2021/12/12 03:14:32;;;;;;;10.52;3.88;;;11.60;99.90;;;;;;5056368;28;20071;-80
2021/12/12 03:17:01;;;;;;;9.43;3.50;;;11.70;99.90;;;;;;5056304;28;20051;-80
2021/12/12 03:19:27;;;;;;;11.57;4.25;;;11.70;99.90;;;;;;5055847;28;20266;-78
2021/12/12 03:21:53;;;;;;;9.43;3.63;;;11.70;99.90;;;;;;5056469;28;20478;-75
2021/12/12 03:24:23;;;;;;;12.77;3.50;;;11.70;99.90;;;;;;5054543;28;20025;-78
2021/12/12 03:26:52;;;;;;;10.30;3.28;;;11.70;99.90;;;;;;5055642;28;20143;-79
2021/12/12 03:29:18;;;;;;;9.35;3.22;;;11.70;99.90;;;;;;5055823;28;20032;-79
2021/12/12 03:31:57;;;;;;;13.60;3.17;;;11.70;99.90;;;;;;5055691;28;20035;-77
2021/12/12 03:34:24;;;;;;;11.90;3.22;;;11.70;99.90;;;;;;5056024;28;20074;-75
2021/12/12 03:36:52;;;;;;;7.22;2.40;;;11.70;99.90;;;;;;5055640;28;20032;-80
2021/12/12 03:39:25;;;;;;;9.82;3.35;;;11.80;99.90;;;;;;5055599;28;20054;-78
2021/12/12 03:41:53;;;;;;;12.65;3.80;;;11.70;99.90;;;;;;5056130;28;20017;-79
2021/12/12 03:44:23;;;;;;;6.82;2.50;;;11.80;99.90;;;;;;5055486;28;20025;-77
2021/12/12 03:46:53;;;;;;;6.50;2.92;;;11.80;99.90;;;;;;5053111;28;20493;-80
2021/12/12 03:49:19;;;;;;;9.38;2.63;;;11.80;99.90;;;;;;5055432;28;20400;-77
2021/12/12 03:51:47;;;;;;;9.10;2.50;;;11.80;99.90;;;;;;5055332;28;20155;-77
2021/12/12 03:54:13;;;;;;;9.80;2.53;;;11.80;99.90;;;;;;5055309;28;20021;-78
2021/12/12 03:56:41;;;;;;;7.45;2.65;;;11.80;99.90;;;;;;5055260;28;20025;-77
2021/12/12 03:59:07;;;;;;;8.98;2.42;;;11.90;99.90;;;;;;5055486;28;20021;-75
2021/12/12 04:01:53;;;;;;;9.18;3.33;;;11.90;99.90;;;;;;5055443;28;20036;-78
2021/12/12 04:04:30;;;;;;;11.02;2.53;;;11.90;99.90;;;;;;5055636;28;20025;-77
2021/12/12 04:06:57;;;;;;;11.75;2.85;;;11.90;99.90;;;;;;5055141;28;20029;-79
2021/12/12 04:09:23;;;;;;;10.48;2.50;;;11.90;99.90;;;;;;5054966;28;20067;-77
2021/12/12 04:11:54;;;;;;;9.32;2.90;;;11.90;99.90;;;;;;5055332;28;20380;-77
2021/12/12 04:14:21;;;;;;;9.68;3.35;;;11.90;99.90;;;;;;5055035;28;20017;-78
2021/12/12 04:16:53;;;;;;;8.45;2.88;;;11.90;99.90;;;;;;5054923;28;20032;-78
2021/12/12 04:19:20;;;;;;;8.35;2.47;;;11.80;99.90;;;;;;5055463;28;20049;-75
2021/12/12 04:21:46;;;;;;;8.30;2.15;;;11.90;99.90;;;;;;5054863;28;20036;-77
2021/12/12 04:24:21;;;;;;;7.88;2.38;;;11.80;99.90;;;;;;5054642;28;20040;-77
2021/12/12 04:26:47;;;;;;;6.90;3.30;;;11.80;99.90;;;;;;5054557;28;20074;-74
2021/12/12 04:29:19;;;;;;;9.45;2.67;;;11.80;99.90;;;;;;5054954;28;20096;-79
2021/12/12 04:31:52;;;;;;;7.95;2.33;;;11.80;99.90;;;;;;5054778;28;20485;-78
2021/12/12 04:34:23;;;;;;;6.63;2.88;;;11.80;99.90;;;;;;5054889;28;20017;-79
2021/12/12 04:36:49;;;;;;;11.50;2.78;;;11.70;99.90;;;;;;5054876;28;20029;-79
2021/12/12 04:39:22;;;;;;;7.53;2.65;;;11.70;99.90;;;;;;5054431;28;20033;-79
2021/12/12 04:41:50;;;;;;;7.57;2.67;;;11.70;99.90;;;;;;5054701;28;20033;-74
2021/12/12 04:44:37;;;;;;;9.63;2.58;;;11.70;99.90;;;;;;5054630;28;20028;-76
2021/12/12 04:50:35;;;;;;;9.70;2.58;;;11.60;99.90;;;;;;5054149;28;20114;-75
2021/12/12 04:53:11;;;;;;;6.63;2.60;;;11.60;99.90;;;;;;5054206;28;20389;-79
2021/12/12 04:55:56;;;;;;;12.30;3.20;;;11.50;99.90;;;;;;5054743;28;20024;-77
2021/12/12 04:58:39;;;;;;;10.18;3.25;;;11.50;99.90;;;;;;5054197;28;20025;-78
2021/12/12 05:01:34;;;;;;;7.72;2.67;;;11.40;99.90;;;;;;5054697;28;20029;-77
2021/12/12 05:04:07;;;;;;;7.35;2.47;;;11.40;99.90;;;;;;5054366;28;20025;-78
2021/12/12 05:06:46;;;;;;;8.48;2.58;;;11.30;99.90;;;;;;5054730;28;20029;-76
2021/12/12 05:09:23;;;;;;;7.63;2.50;;;11.30;99.90;;;;;;5054604;28;20033;-76
2021/12/12 05:12:04;;;;;;;10.10;2.80;;;11.30;99.90;;;;;;5054158;28;20740;-77
2021/12/12 05:14:35;;;;;;;9.05;2.30;;;11.30;99.90;;;;;;5054393;28;20028;-77
2021/12/12 05:17:17;;;;;;;5.45;2.30;;;11.30;99.90;;;;;;5053852;28;20017;-80
2021/12/12 05:19:48;;;;;;;5.95;1.80;;;11.30;99.90;;;;;;5054356;28;20075;-76
2021/12/12 05:22:22;;;;;;;10.40;2.45;;;11.30;99.90;;;;;;5054448;28;20060;-77
2021/12/12 05:24:51;;;;;;;7.68;1.85;;;11.30;99.90;;;;;;5053689;28;20025;-78
2021/12/12 05:27:24;;;;;;;7.40;2.07;;;11.30;99.90;;;;;;5053437;28;20408;-79
2021/12/12 05:30:22;;;;;;;7.13;2.30;;;11.30;99.90;;;;;;5053839;28;20025;-75
2021/12/12 05:32:49;;;;;;;6.25;1.65;;;11.30;99.90;;;;;;5053860;28;20151;-79
2021/12/12 05:35:18;;;;;;;5.93;1.70;;;11.30;99.90;;;;;;5053487;28;20056;-78
2021/12/12 05:37:49;;;;;;;8.25;3.00;;;11.40;99.90;;;;;;5053759;28;20032;-78
2021/12/12 05:40:15;;;;;;;10.07;2.40;;;11.40;99.90;;;;;;5053788;28;20611;-77
2021/12/12 05:42:41;;;;;;;6.45;2.45;;;11.30;99.90;;;;;;5053653;28;20028;-77
2021/12/12 05:45:10;;;;;;;12.00;1.85;;;11.30;99.90;;;;;;5053623;28;20048;-77
2021/12/12 05:47:37;;;;;;;8.00;1.83;;;11.40;99.90;;;;;;5053585;28;20381;-77
2021/12/12 05:50:06;;;;;;;5.28;1.58;;;11.40;99.90;;;;;;5051916;28;20455;-78
2021/12/12 05:52:32;;;;;;;5.85;1.80;;;11.40;99.90;;;;;;5053550;28;20027;-77
2021/12/12 05:55:01;;;;;;;4.88;1.92;;;11.40;99.90;;;;;;5053220;28;20389;-76
2021/12/12 05:57:28;;;;;;;4.93;1.88;;;11.40;99.90;;;;;;5053441;28;20021;-78
2021/12/12 05:59:56;;;;;;;5.68;2.17;;;11.40;99.90;;;;;;5053155;28;20032;-78
2021/12/12 06:02:24;;;;;;;4.88;1.70;;;11.40;99.90;;;;;;5053182;28;20025;-77
2021/12/12 06:04:49;;;;;;;4.88;1.77;;;11.40;99.90;;;;;;5053170;28;20070;-79
2021/12/12 06:07:20;;;;;;;6.18;1.77;;;11.40;99.90;;;;;;5053121;28;20029;-76
2021/12/12 06:09:49;;;;;;;4.57;1.67;;;11.40;99.90;;;;;;5054754;28;20040;-79
2021/12/12 06:12:15;;;;;;;9.25;1.77;;;11.40;99.90;;;;;;5057226;28;20025;-78
2021/12/12 06:14:42;;;;;;;6.80;2.15;;;11.40;99.90;;;;;;5057196;28;20074;-76
2021/12/12 06:17:11;;;;;;;6.30;1.40;;;11.50;99.90;;;;;;5057160;28;20029;-78
2021/12/12 06:19:38;;;;;;;7.45;1.92;;;11.50;99.90;;;;;;5056956;28;20021;-79
2021/12/12 06:22:05;;;;;;;3.80;1.42;;;11.50;99.90;;;;;;5057060;28;20017;-80
2021/12/12 06:24:33;;;;;;;6.80;1.70;;;11.50;99.90;;;;;;5056948;28;20043;-75
2021/12/12 06:27:11;;;;;;;4.97;1.70;;;11.50;99.90;;;;;;5056743;28;20041;-77
2021/12/12 06:29:38;;;;;;;4.00;1.50;;;11.50;99.90;;;;;;5057042;28;20025;-76
2021/12/12 06:32:04;;;;;;;4.60;1.42;;;11.50;99.90;;;;;;5057445;28;20112;-77
2021/12/12 06:34:30;;;;;;;4.00;1.50;;;11.60;99.90;;;;;;5056888;28;20017;-76
2021/12/12 06:36:56;;;;;;;6.75;1.35;;;11.50;99.90;;;;;;5055570;28;20024;-76
2021/12/12 06:39:23;;;;;;;4.30;1.60;;;11.50;99.90;;;;;;5056750;28;20469;-80
2021/12/12 06:41:50;;;;;;;6.20;2.72;;;11.50;99.90;;;;;;5056980;28;20025;-78
2021/12/12 06:44:17;;;;;;;8.68;2.17;;;11.60;99.90;;;;;;5056897;28;20046;-77
2021/12/12 06:46:44;;;;;;;3.47;1.63;;;11.60;99.90;;;;;;5056606;28;20029;-80
2021/12/12 06:49:14;;;;;;;4.40;1.80;;;11.60;99.90;;;;;;5056568;28;20017;-77
2021/12/12 06:51:45;;;;;;;6.28;1.80;;;11.60;99.90;;;;;;5057025;28;20025;-77
2021/12/12 06:54:16;;;;;;;4.32;2.13;;;11.60;99.90;;;;;;5056779;28;20028;-76
2021/12/12 06:56:42;;;;;;;5.55;2.38;;;11.50;99.90;;;;;;5056757;28;20028;-76
2021/12/12 06:59:08;;;;;;;8.60;4.82;;;11.50;99.90;;;;;;5056406;28;20103;-75
2021/12/12 07:01:35;;;;;;;7.47;2.25;;;11.50;99.90;;;;;;5056311;28;20041;-77
2021/12/12 07:04:02;;;;;;;7.85;1.90;;;11.60;99.90;;;;;;5056349;28;20021;-78
2021/12/12 07:06:30;;;;;;;7.28;2.20;;;11.50;99.90;;;;;;5056262;28;20040;-77
2021/12/12 07:09:03;;;;;;;7.78;2.10;;;11.50;99.90;;;;;;5056130;28;20025;-77
2021/12/12 07:11:29;;;;;;;9.50;2.30;;;11.60;99.90;;;;;;5056681;28;20025;-77
2021/12/12 07:13:55;;;;;;;4.43;1.58;;;11.60;99.90;;;;;;5056080;28;20017;-79
2021/12/12 07:16:22;;;;;;;7.65;2.10;;;11.60;99.90;;;;;;5056104;28;20051;-78
2021/12/12 07:18:48;;;;;;;5.25;2.10;;;11.60;99.90;;;;;;5056567;28;20024;-77
2021/12/12 07:21:16;;;;;;;2.50;1.45;;;11.60;99.90;;;;;;5055918;28;20048;-75
2021/12/12 07:23:44;;;;;;;6.85;2.85;;;11.60;99.90;;;;;;5056062;28;20028;-76
2021/12/12 07:26:11;;;;;;;13.27;3.63;;;11.60;99.90;;;;;;5056380;28;20056;-77
2021/12/12 07:28:39;;;;;;;7.07;3.10;;;11.60;99.90;;;;;;5055409;28;20040;-78
2021/12/12 07:31:10;;;;;;;10.70;3.92;;;11.60;99.90;;;;;;5055757;28;20029;-78
2021/12/12 07:33:36;;;;;;;13.48;4.07;;;11.70;99.90;;;;;;5056046;28;20017;-77
2021/12/12 07:36:06;;;;;;;7.18;3.90;;;11.60;99.90;;;;;;5055732;28;20021;-78
2021/12/12 07:38:32;;;;;;;9.55;3.53;;;11.60;99.90;;;;;;5055624;28;20025;-79
2021/12/12 07:40:59;;;;;;;6.78;3.03;;;11.60;99.90;;;;;;5055880;28;20131;-78
2021/12/12 07:43:27;;;;;;;8.35;2.55;;;11.60;99.90;;;;;;5055545;28;20063;-76
2021/12/12 07:45:53;;;;;;;9.88;2.97;;;11.60;99.90;;;;;;5055547;28;20028;-75
2021/12/12 07:48:19;;;;;;;8.85;3.22;;;11.60;99.90;;;;;;5055491;28;20028;-79
2021/12/12 07:50:46;;;;;;;7.18;3.20;;;11.60;99.90;;;;;;5055355;28;20396;-81
2021/12/12 07:53:12;;;;;;;5.57;3.15;;;11.70;99.90;;;;;;5055395;28;20021;-76
2021/12/12 07:55:39;;;;;;;9.00;3.65;;;11.70;99.90;;;;;;5055342;28;20021;-78
2021/12/12 07:58:12;;;;;;;7.80;3.20;;;11.70;99.90;;;;;;5054010;28;20025;-78
2021/12/12 08:00:41;;;;;;;10.63;3.53;;;11.70;99.90;;;;;;5055540;28;20055;-79
2021/12/12 08:03:07;;;;;;;11.68;3.55;;;11.70;99.90;;;;;;5055196;28;20075;-75
2021/12/12 08:05:35;;;;;;;8.60;3.75;;;11.70;99.90;;;;;;5055158;28;20033;-76
2021/12/12 08:08:06;;;;;;;9.27;3.58;;;11.70;99.90;;;;;;5055084;28;20024;-78
2021/12/12 08:10:33;;;;;;;7.97;3.35;;;11.70;99.90;;;;;;5055033;28;20425;-76
2021/12/12 08:12:59;;;;;;;7.90;3.33;;;11.70;99.90;;;;;;5055009;28;20028;-77
2021/12/12 08:15:28;;;;;;;10.02;4.07;;;11.70;99.90;;;;;;5055011;28;20029;-76
2021/12/12 08:17:56;;;;;;;9.83;3.53;;;11.70;99.90;;;;;;5055222;28;20021;-75
2021/12/12 08:20:22;;;;;;;9.88;4.20;;;11.80;99.90;;;;;;5054883;28;20021;-77
2021/12/12 08:22:49;;;;;;;13.38;3.70;;;11.80;99.90;;;;;;5055357;28;20071;-75
2021/12/12 08:25:17;;;;;;;11.65;4.85;;;11.70;99.90;;;;;;5054990;28;20119;-80
2021/12/12 08:27:44;;;;;;;12.00;3.97;;;11.80;99.90;;;;;;5054527;28;20409;-79
2021/12/12 08:30:12;;;;;;;14.80;5.22;;;11.80;99.90;;;;;;5054837;28;20032;-81
2021/12/12 08:32:38;;;;;;;13.35;4.30;;;11.90;99.90;;;;;;5054097;28;20388;-76
2021/12/12 08:35:06;;;;;;;12.45;4.88;;;11.90;99.90;;;;;;5054587;28;20017;-77
2021/12/12 08:37:32;;;;;;;9.57;4.40;;;11.90;99.90;;;;;;5054421;28;20025;-76
2021/12/12 08:40:00;;;;;;;12.10;4.90;;;11.90;99.90;;;;;;5054467;28;20048;-74
2021/12/12 08:42:27;;;;;;;10.50;5.80;;;11.90;99.90;;;;;;5054449;28;20083;-79
2021/12/12 08:44:55;;;;;;;10.32;5.15;;;11.90;99.90;;;;;;5054702;28;20098;-77
2021/12/12 08:47:21;;;;;;;8.13;4.63;;;11.90;99.90;;;;;;5054366;28;20032;-80
2021/12/12 08:49:48;;;;;;;11.18;4.72;;;11.90;99.90;;;;;;5054479;28;20095;-78
2021/12/12 08:52:29;;;;;;;11.68;5.25;;;11.90;99.90;;;;;;5052976;28;20431;-79
2021/12/12 08:54:55;;;;;;;13.52;4.85;;;11.90;99.90;;;;;;5054526;28;20036;-78
2021/12/12 08:58:24;;;;;;;11.88;5.57;;;12.00;99.90;;;;;;5054179;28;20013;-77
2021/12/12 09:00:24;;;;;;;10.40;4.32;;;12.00;99.90;;;;;;5057787;28;20379;-76
2021/12/12 09:02:52;;;;;;;10.93;4.90;;;12.00;99.90;;;;;;5054144;28;20021;-77
2021/12/12 09:05:23;;;;;;;9.82;4.40;;;12.00;99.90;;;;;;5053971;28;20036;-75
2021/12/12 09:07:55;;;;;;;10.18;4.72;;;12.10;99.90;;;;;;5054299;28;20025;-76
2021/12/12 09:10:33;;;;;;;12.07;4.15;;;12.10;99.90;;;;;;5054122;28;20064;-78
2021/12/12 09:13:06;;;;;;;12.55;4.53;;;12.10;99.90;;;;;;5052342;28;20493;-78
2021/12/12 09:15:37;;;;;;;8.85;4.72;;;12.10;99.90;;;;;;5053886;28;20052;-78
2021/12/12 09:18:07;;;;;;;9.45;4.55;;;12.10;99.90;;;;;;5053779;28;20021;-79
2021/12/12 09:20:49;;;;;;;13.05;4.57;;;12.10;99.90;;;;;;5054102;28;20029;-76
2021/12/12 09:23:29;;;;;;;11.07;4.53;;;12.10;99.90;;;;;;5054144;28;20377;-76
2021/12/12 09:26:18;;;;;;;11.45;4.40;;;12.10;99.90;;;;;;5053686;28;20489;-77
2021/12/12 09:29:12;;;;;;;10.02;4.45;;;12.20;99.90;;;;;;5054171;28;20075;-75
2021/12/12 09:31:45;;;;;;;9.07;4.25;;;12.10;99.90;;;;;;5052845;28;20051;-78
2021/12/12 09:34:19;;;;;;;11.15;4.47;;;12.10;99.90;;;;;;5053882;28;20032;-79
2021/12/12 09:36:54;;;;;;;9.77;4.15;;;12.20;99.90;;;;;;5053835;28;20454;-77
2021/12/12 09:39:28;;;;;;;11.75;4.40;;;12.10;99.90;;;;;;5054037;28;20024;-80
2021/12/12 09:42:27;;;;;;;10.20;3.95;;;12.10;99.90;;;;;;5053739;28;20385;-76
2021/12/12 09:45:21;;;;;;;9.25;4.18;;;12.20;99.90;;;;;;5053147;28;20017;-75
2021/12/12 09:51:14;;;;;;;11.73;4.18;;;12.20;99.90;;;;;;5053635;28;20075;-79
2021/12/12 09:51:18;;;;;;;12.73;4.22;;;12.20;99.90;;;;;;5052902;28;20025;-75
2021/12/12 09:54:02;;;;;;;14.98;4.18;;;12.20;99.90;;;;;;5053507;28;20021;-76
2021/12/12 09:56:46;;;;;;;10.00;3.97;;;12.20;99.90;;;;;;5053751;28;20441;-78
2021/12/12 09:59:54;;;;;;;11.27;3.88;;;12.20;99.90;;;;;;5053918;28;20030;-76
2021/12/12 10:02:38;;;;;;;10.02;3.90;;;12.20;99.90;;;;;;5053081;28;20385;-77
2021/12/12 10:05:25;;;;;;;11.70;4.07;;;12.30;99.90;;;;;;5053148;28;20057;-78
2021/12/12 10:08:15;;;;;;;12.00;4.25;;;12.30;99.90;;;;;;5053436;28;20100;-77
2021/12/12 10:11:05;;;;;;;9.82;3.75;;;12.30;99.90;;;;;;5053006;28;20029;-75
2021/12/12 10:13:30;;;;;;;11.38;4.00;;;12.20;99.90;;;;;;5053623;28;20021;-79
2021/12/12 10:16:03;;;;;;;9.77;3.15;;;12.30;99.90;;;;;;5051730;28;20466;-76
2021/12/12 10:18:47;;;;;;;10.32;3.55;;;12.30;99.90;;;;;;5053253;28;20079;-78
2021/12/12 10:21:19;;;;;;;8.52;3.88;;;12.30;99.90;;;;;;5052975;28;20090;-77
2021/12/12 10:24:16;;;;;;;11.70;4.20;;;12.30;99.90;;;;;;5052926;28;20025;-78
2021/12/12 10:26:48;;;;;;;9.98;3.70;;;12.40;99.90;;;;;;5052954;28;20552;-78
2021/12/12 10:29:19;;;;;;;11.57;4.13;;;12.40;99.90;;;;;;5052927;28;20021;-79
2021/12/12 10:31:56;;;;;;;10.50;4.60;;;12.40;99.90;;;;;;5053076;28;20389;-78
2021/12/12 10:34:34;;;;;;;9.40;4.07;;;12.40;99.90;;;;;;5053234;28;20021;-77
2021/12/12 10:37:20;;;;;;;7.97;3.58;;;12.40;99.90;;;;;;5051388;28;20025;-77
2021/12/12 10:39:55;;;;;;;13.77;3.72;;;12.40;99.90;;;;;;5053140;28;20035;-80
2021/12/12 10:42:26;;;;;;;14.00;3.20;;;12.40;99.90;;;;;;5053128;28;20021;-80
2021/12/12 10:45:06;;;;;;;7.97;3.47;;;12.50;99.90;;;;;;5052841;28;20112;-78
2021/12/12 10:47:57;;;;;;;9.27;3.42;;;12.50;99.90;;;;;;5051445;28;20017;-78
2021/12/12 10:50:41;;;;;;;10.45;3.15;;;12.50;99.90;;;;;;5053437;28;20378;-77
2021/12/12 10:53:30;;;;;;;12.30;3.63;;;12.50;99.90;;;;;;5053046;28;20083;-77
2021/12/12 10:56:19;;;;;;;6.60;2.83;;;12.50;99.90;;;;;;5054237;28;20027;-75
2021/12/12 10:58:49;;;;;;;8.70;3.00;;;12.50;99.90;;;;;;5057084;28;20028;-78
2021/12/12 11:01:37;;;;;;;9.48;2.78;;;12.50;99.90;;;;;;5054889;28;20029;-77
2021/12/12 11:04:43;;;;;;;8.20;3.08;;;12.60;99.90;;;;;;5054867;28;20108;-78
2021/12/12 11:07:22;;;;;;;8.75;3.13;;;12.60;99.90;;;;;;5055996;28;20512;-81
2021/12/12 11:10:02;;;;;;;10.55;3.38;;;12.60;99.90;;;;;;5056718;28;20017;-78
2021/12/12 11:12:30;;;;;;;7.80;3.03;;;12.60;99.90;;;;;;5056522;28;20032;-77
2021/12/12 11:15:20;;;;;;;7.25;2.65;;;12.70;99.90;;;;;;5056130;28;20025;-77
2021/12/12 11:18:01;;;;;;;8.15;3.10;;;12.70;99.90;;;;;;5056149;28;20542;-79
2021/12/12 11:20:35;;;;;;;8.18;3.03;;;12.70;99.90;;;;;;5056362;28;20032;-80
2021/12/12 11:23:04;;;;;;;12.25;3.42;;;12.70;99.90;;;;;;5055008;28;20060;-80
2021/12/12 11:25:43;;;;;;;8.75;2.80;;;12.70;99.90;;;;;;5056195;28;20033;-78
2021/12/12 11:28:37;;;;;;;10.63;3.70;;;12.70;99.90;;;;;;5055659;28;20091;-75
2021/12/12 11:31:14;;;;;;;5.75;2.97;;;12.70;99.90;;;;;;5055244;28;20041;-78
2021/12/12 11:33:44;;;;;;;9.98;3.65;;;12.80;99.90;;;;;;5056384;28;20020;-79
2021/12/12 11:36:15;;;;;;;9.52;3.53;;;12.70;99.90;;;;;;5054505;28;20115;-77
2021/12/12 11:38:52;;;;;;;12.32;3.17;;;12.70;99.90;;;;;;5055978;28;20070;-78
2021/12/12 11:41:36;;;;;;;9.52;3.08;;;12.70;99.90;;;;;;5055655;28;20033;-77
2021/12/12 11:44:23;;;;;;;7.68;3.55;;;12.80;99.90;;;;;;5056184;28;20025;-77
2021/12/12 11:47:11;;;;;;;7.78;3.30;;;12.80;99.90;;;;;;5055803;28;20087;-78
2021/12/12 11:50:01;;;;;;;10.48;2.90;;;12.80;99.90;;;;;;5054771;28;20040;-78
2021/12/12 11:52:53;;;;;;;8.68;2.72;;;12.80;99.90;;;;;;5055959;28;20035;-78
2021/12/12 11:55:23;;;;;;;7.18;2.63;;;12.80;99.90;;;;;;5055941;28;20519;-80
2021/12/12 11:58:30;;;;;;;9.73;3.15;;;12.80;99.90;;;;;;5055616;28;20021;-76
2021/12/12 12:01:30;;;;;;;8.00;2.33;;;12.80;99.90;;;;;;5044092;28;20033;-79
2021/12/12 12:04:32;;;;;;;7.80;2.83;;;12.80;99.90;;;;;;5054429;28;20032;-77
2021/12/12 12:07:16;;;;;;;10.30;2.72;;;12.90;99.90;;;;;;5054769;28;20025;-78
2021/12/12 12:10:03;;;;;;;10.32;3.78;;;12.80;99.90;;;;;;5055674;28;20095;-76
2021/12/12 12:12:48;;;;;;;7.25;2.60;;;12.80;99.90;;;;;;5055676;28;20398;-81
2021/12/12 12:15:13;;;;;;;11.65;2.92;;;12.80;99.90;;;;;;5055585;28;20021;-77
2021/12/12 12:18:02;;;;;;;7.45;3.28;;;12.80;99.90;;;;;;5055235;28;20100;-78
2021/12/12 12:21:05;;;;;;;8.10;3.10;;;12.80;99.90;;;;;;5055220;28;20056;-78
2021/12/12 12:27:03;;;;;;;6.95;2.92;;;12.80;99.90;;;;;;5055281;28;20025;-79
2021/12/12 12:29:30;;;;;;;10.80;2.75;;;12.80;99.90;;;;;;5054459;28;20091;-78
2021/12/12 12:32:23;;;;;;;6.15;2.40;;;12.80;99.90;;;;;;5053352;28;20120;-78
2021/12/12 12:34:49;;;;;;;10.38;3.03;;;12.90;99.90;;;;;;5054950;28;20060;-75
2021/12/12 12:37:33;;;;;;;6.75;2.65;;;12.90;99.90;;;;;;5054853;28;20025;-78
2021/12/12 12:40:36;;;;;;;7.57;2.55;;;12.90;99.90;;;;;;5054776;28;20032;-78
2021/12/12 12:43:39;;;;;;;8.68;2.67;;;12.90;99.90;;;;;;5054487;28;20024;-76
2021/12/12 12:46:22;;;;;;;9.02;3.17;;;12.90;99.90;;;;;;5054391;28;20032;-79
2021/12/12 12:49:06;;;;;;;8.68;2.70;;;12.90;99.90;;;;;;5054653;28;20028;-75
2021/12/12 12:51:32;;;;;;;10.38;2.50;;;12.90;99.90;;;;;;5054734;28;20025;-79
2021/12/12 12:54:19;;;;;;;8.43;2.45;;;12.90;99.90;;;;;;5054531;28;20027;-78
2021/12/12 12:57:09;;;;;;;7.20;2.50;;;12.90;99.90;;;;;;5054164;28;20032;-76
2021/12/12 12:59:54;;;;;;;;;;;13.00;99.90;;;;;;5054879;28;20025;-78
2021/12/12 13:02:28;;;;;;;15.77;3.35;;;13.00;99.90;;;;;;5054105;28;20361;-78
2021/12/12 13:04:56;;;;;;;9.25;3.15;;;12.90;99.90;;;;;;5054051;28;20036;-77
2021/12/12 13:07:23;;;;;;;11.77;3.45;;;12.90;99.90;;;;;;5054297;28;20386;-79
2021/12/12 13:10:09;;;;;;;7.80;2.55;;;12.90;99.90;;;;;;5053897;28;20032;-75
2021/12/12 13:12:57;;;;;;;9.23;2.35;;;12.90;99.90;;;;;;5054228;28;20032;-78
2021/12/12 13:16:00;;;;;;;9.05;2.35;;;13.00;99.90;;;;;;5052352;28;20454;-77
2021/12/12 13:18:37;;;;;;;9.32;2.45;;;12.90;99.90;;;;;;5054250;28;20013;-77
2021/12/12 13:21:17;;;;;;;11.18;2.70;;;13.00;99.90;;;;;;5054364;28;20040;-75
2021/12/12 13:23:56;;;;;;;7.47;2.83;;;13.00;99.90;;;;;;5053850;28;20025;-74
2021/12/12 13:26:53;;;;;;;8.15;2.65;;;13.00;99.90;;;;;;5054028;28;20021;-77
2021/12/12 13:29:35;;;;;;;9.52;2.53;;;13.00;99.90;;;;;;5053903;28;20025;-79
2021/12/12 13:32:35;;;;;;;6.22;2.13;;;13.00;99.90;;;;;;5053842;28;20035;-80
2021/12/12 13:35:18;;;;;;;9.07;3.40;;;13.00;99.90;;;;;;5053906;28;20017;-77
2021/12/12 13:37:55;;;;;;;7.93;2.42;;;13.00;99.90;;;;;;5054078;28;20028;-79
2021/12/12 13:40:35;;;;;;;9.15;2.92;;;13.00;99.90;;;;;;5053741;28;20465;-75
2021/12/12 13:43:30;;;;;;;8.10;2.83;;;12.90;99.90;;;;;;5053752;28;20033;-74